Time,TemperatureF,DewpointF,PressureIn,WindDirection,WindDirectionDegrees,WindSpeedMPH,WindSpeedGustMPH,Humidity,HourlyPrecipIn,Conditions,Clouds,dailyrainin,SoftwareType,DateUTC
2013-08-22 00:09:00,84.4,61.9,30.00,South,186,2.0,0.0,47,0.00,CLR,,0.00,WeatherDisplay:10.37,2013-08-22 05:09:00,
2013-08-22 00:19:00,84.0,61.6,30.00,South,175,5.0,0.0,47,0.00,CLR,,0.00,WeatherDisplay:10.37,2013-08-22 05:19:00,
2013-08-22 00:29:00,83.8,61.5,29.99,SSE,165,7.0,0.0,47,0.00,CLR,,0.00,WeatherDisplay:10.37,2013-08-22 05:29:00,
2013-08-22 00:39:00,83.5,61.1,30.00,SSE,167,3.0,0.0,47,0.00,CLR,,0.00,WeatherDisplay:10.37,2013-08-22 05:39:00,
2013-08-22 00:49:00,83.5,61.1,30.00,South,177,5.0,0.0,47,0.00,CLR,,0.00,WeatherDisplay:10.37,2013-08-22 05:49:00,
2013-08-22 00:59:00,83.3,61.5,29.99,South,182,2.0,0.0,48,0.00,CLR,,0.00,WeatherDisplay:10.37,2013-08-22 05:59:00,
2013-08-22 01:09:00,83.1,61.4,29.99,South,182,2.0,0.0,48,0.00,CLR,,0.00,WeatherDisplay:10.37,2013-08-22 06:09:00,
2013-08-22 01:19:00,82.9,61.2,29.99,South,178,1.0,0.0,48,0.00,CLR,,0.00,WeatherDisplay:10.37,2013-08-22 06:19:00,
2013-08-22 01:29:00,82.8,61.6,29.98,South,186,2.0,0.0,49,0.00,CLR,,0.00,WeatherDisplay:10.37,2013-08-22 06:29:00,
2013-08-22 01:39:00,82.4,61.9,29.99,SSW,195,1.0,0.0,50,0.00,CLR,,0.00,WeatherDisplay:10.37,2013-08-22 06:39:00,
2013-08-22 01:49:00,82.0,61.6,29.98,SSW,194,1.0,0.0,50,0.00,CLR,,0.00,WeatherDisplay:10.37,2013-08-22 06:49:00,
2013-08-22 01:59:00,81.9,61.4,29.99,SSW,203,2.0,0.0,50,0.00,CLR,,0.00,WeatherDisplay:10.37,2013-08-22 06:59:00,
2013-08-22 02:09:00,81.7,61.8,29.99,South,188,3.0,0.0,51,0.00,CLR,,0.00,WeatherDisplay:10.37,2013-08-22 07:09:00,
2013-08-22 02:19:00,81.7,61.8,29.99,SSW,193,5.0,0.0,51,0.00,CLR,,0.00,WeatherDisplay:10.37,2013-08-22 07:19:00,
2013-08-22 02:29:00,81.3,61.5,29.98,SSW,195,5.0,0.0,51,0.00,CLR,,0.00,WeatherDisplay:10.37,2013-08-22 07:29:00,
2013-08-22 02:39:00,81.3,61.5,29.98,South,188,5.0,0.0,51,0.00,CLR,,0.00,WeatherDisplay:10.37,2013-08-22 07:39:00,
2013-08-22 02:49:00,81.3,62.0,29.98,South,191,6.0,0.0,52,0.00,CLR,,0.00,WeatherDisplay:10.37,2013-08-22 07:49:00,
2013-08-22 02:59:00,81.1,61.8,29.98,South,187,5.0,0.0,52,0.00,CLR,,0.00,WeatherDisplay:10.37,2013-08-22 07:59:00,
2013-08-22 03:09:00,81.0,62.2,29.98,SSW,200,5.0,0.0,53,0.00,CLR,,0.00,WeatherDisplay:10.37,2013-08-22 08:09:00,
2013-08-22 03:19:00,80.9,62.2,29.98,South,187,5.0,0.0,53,0.00,CLR,,0.00,WeatherDisplay:10.37,2013-08-22 08:19:00,
2013-08-22 03:20:00,91.8,68.0,29.98,SSE,156,8.0,12.0,46,0.00,CLR,,0.00,WeatherDisplay:10.37,2013-08-22 08:20:00,
2013-08-22 03:21:00,91.8,68.0,29.98,SSE,156,8.0,0.0,46,0.00,CLR,,0.00,WeatherDisplay:10.37,2013-08-22 08:21:00,
2013-08-22 03:22:00,91.8,68.0,29.98,SSE,156,8.0,0.0,46,0.00,CLR,,0.00,WeatherDisplay:10.37,2013-08-22 08:22:00,
2013-08-22 03:23:00,91.8,68.0,29.98,SSE,156,8.0,0.0,46,0.00,CLR,,0.00,WeatherDisplay:10.37,2013-08-22 08:23:00,
2013-08-22 03:24:00,91.8,68.0,29.98,SSE,156,8.0,0.0,46,0.00,CLR,,0.00,WeatherDisplay:10.37,2013-08-22 08:24:00,
2013-08-22 03:25:00,91.8,68.0,29.98,SSE,156,8.0,0.0,46,0.00,CLR,,0.00,WeatherDisplay:10.37,2013-08-22 08:25:00,
2013-08-22 03:26:00,91.8,68.0,29.98,SSE,156,8.0,0.0,46,0.00,CLR,,0.00,WeatherDisplay:10.37,2013-08-22 08:26:00,
2013-08-22 03:27:00,91.8,68.0,29.98,SSE,156,8.0,0.0,46,0.00,CLR,,0.00,WeatherDisplay:10.37,2013-08-22 08:27:00,
2013-08-22 03:28:00,91.8,68.0,29.98,SSE,156,8.0,0.0,46,0.00,CLR,,0.00,WeatherDisplay:10.37,2013-08-22 08:28:00,
2013-08-22 03:29:00,80.6,62.4,29.98,South,186,3.0,0.0,54,0.00,CLR,,0.00,WeatherDisplay:10.37,2013-08-22 08:29:00,
2013-08-22 03:39:00,80.4,62.2,29.99,SSW,193,3.0,0.0,54,0.00,CLR,,0.00,WeatherDisplay:10.37,2013-08-22 08:39:00,
2013-08-22 03:49:00,80.4,63.8,29.99,South,190,6.0,0.0,57,0.00,CLR,,0.00,WeatherDisplay:10.37,2013-08-22 08:49:00,
2013-08-22 03:59:00,80.2,63.6,29.99,South,189,7.0,0.0,57,0.00,CLR,,0.00,WeatherDisplay:10.37,2013-08-22 08:59:00,
2013-08-22 04:09:00,80.1,63.5,29.99,SSW,196,5.0,0.0,57,0.00,CLR,,0.00,WeatherDisplay:10.37,2013-08-22 09:09:00,
2013-08-22 04:19:00,80.1,63.5,29.99,SSW,213,3.0,0.0,57,0.00,CLR,,0.00,WeatherDisplay:10.37,2013-08-22 09:19:00,
2013-08-22 04:29:00,79.9,63.8,30.00,South,186,6.0,0.0,58,0.00,CLR,,0.00,WeatherDisplay:10.37,2013-08-22 09:29:00,
2013-08-22 04:39:00,79.8,63.7,30.00,South,176,5.0,0.0,58,0.00,CLR,,0.00,WeatherDisplay:10.37,2013-08-22 09:39:00,
2013-08-22 04:49:00,79.5,63.9,30.00,South,180,6.0,0.0,59,0.00,CLR,,0.00,WeatherDisplay:10.37,2013-08-22 09:49:00,
2013-08-22 04:59:00,79.5,63.9,30.00,South,183,6.0,0.0,59,0.00,CLR,,0.00,WeatherDisplay:10.37,2013-08-22 09:59:00,
2013-08-22 05:09:00,79.3,63.8,30.00,South,187,3.0,0.0,59,0.00,CLR,,0.00,WeatherDisplay:10.37,2013-08-22 10:09:00,
2013-08-22 05:19:00,79.2,64.1,30.00,SSW,192,3.0,0.0,60,0.00,CLR,,0.00,WeatherDisplay:10.37,2013-08-22 10:19:00,
2013-08-22 05:29:00,79.2,64.1,30.01,South,176,5.0,0.0,60,0.00,CLR,,0.00,WeatherDisplay:10.37,2013-08-22 10:29:00,
2013-08-22 05:39:00,79.2,64.1,30.01,South,179,2.0,0.0,60,0.00,CLR,,0.00,WeatherDisplay:10.37,2013-08-22 10:39:00,
2013-08-22 05:49:00,79.2,64.1,30.01,South,190,1.0,0.0,60,0.00,CLR,,0.00,WeatherDisplay:10.37,2013-08-22 10:49:00,
2013-08-22 07:29:00,78.8,65.6,30.03,South,179,3.0,0.0,64,0.00,CLR,,0.00,WeatherDisplay:10.37,2013-08-22 12:29:00,
2013-08-22 07:39:00,78.8,66.0,30.04,South,176,2.0,0.0,65,0.00,CLR,,0.00,WeatherDisplay:10.37,2013-08-22 12:39:00,
2013-08-22 14:39:00,95.0,66.9,29.98,South,182,5.0,0.0,40,0.00,CLR,,0.00,WeatherDisplay:10.37,2013-08-22 19:39:00,
2013-08-22 14:49:00,94.7,67.3,29.97,SE,132,6.0,0.0,41,0.00,CLR,,0.00,WeatherDisplay:10.37,2013-08-22 19:49:00,
2013-08-22 14:59:00,95.4,67.3,29.97,SSW,200,7.0,0.0,40,0.00,CLR,,0.00,WeatherDisplay:10.37,2013-08-22 19:59:00,
2013-08-22 15:09:00,95.5,68.1,29.96,South,182,9.0,0.0,41,0.00,CLR,,0.00,WeatherDisplay:10.37,2013-08-22 20:09:00,
2013-08-22 15:19:00,95.7,68.3,29.96,SSW,198,3.0,0.0,41,0.00,CLR,,0.00,WeatherDisplay:10.37,2013-08-22 20:19:00,
2013-08-22 15:29:00,95.7,67.5,29.95,SSE,157,6.0,0.0,40,0.00,CLR,,0.00,WeatherDisplay:10.37,2013-08-22 20:29:00,
2013-08-22 15:39:00,95.5,67.4,29.95,South,187,7.0,0.0,40,0.00,CLR,,0.00,WeatherDisplay:10.37,2013-08-22 20:39:00,
2013-08-22 15:49:00,96.1,67.2,29.95,South,177,5.0,0.0,39,0.00,CLR,,0.00,WeatherDisplay:10.37,2013-08-22 20:49:00,
2013-08-22 15:59:00,96.6,66.8,29.94,South,188,6.0,0.0,38,0.00,CLR,,0.00,WeatherDisplay:10.37,2013-08-22 20:59:00,
2013-08-22 16:09:00,96.8,67.0,29.93,SSE,160,0.0,0.0,38,0.00,CLR,,0.00,WeatherDisplay:10.37,2013-08-22 21:09:00,
2013-08-22 16:19:00,96.8,66.2,29.93,SSE,166,2.0,0.0,37,0.00,CLR,,0.00,WeatherDisplay:10.37,2013-08-22 21:19:00,
2013-08-22 16:29:00,97.0,66.4,29.93,SSW,204,6.0,0.0,37,0.00,CLR,,0.00,WeatherDisplay:10.37,2013-08-22 21:29:00,
2013-08-22 16:39:00,97.5,65.3,29.92,SSW,198,2.0,0.0,35,0.00,CLR,,0.00,WeatherDisplay:10.37,2013-08-22 21:39:00,
2013-08-22 16:49:00,97.7,66.2,29.92,South,182,7.0,0.0,36,0.00,CLR,,0.00,WeatherDisplay:10.37,2013-08-22 21:49:00,
2013-08-22 16:59:00,97.7,66.2,29.92,SSE,160,6.0,0.0,36,0.00,CLR,,0.00,WeatherDisplay:10.37,2013-08-22 21:59:00,
2013-08-22 17:09:00,97.7,66.2,29.92,SE,133,6.0,0.0,36,0.00,CLR,,0.00,WeatherDisplay:10.37,2013-08-22 22:09:00,
2013-08-22 17:19:00,97.7,65.5,29.91,SW,215,3.0,0.0,35,0.00,CLR,,0.00,WeatherDisplay:10.37,2013-08-22 22:19:00,
2013-08-22 17:29:00,97.9,65.6,29.91,SSW,200,8.0,0.0,35,0.00,CLR,,0.00,WeatherDisplay:10.37,2013-08-22 22:29:00,
2013-08-22 17:39:00,97.7,65.4,29.90,SSW,199,2.0,0.0,35,0.00,CLR,,0.00,WeatherDisplay:10.37,2013-08-22 22:39:00,
2013-08-22 17:49:00,97.7,65.4,29.90,South,187,3.0,0.0,35,0.00,CLR,,0.00,WeatherDisplay:10.37,2013-08-22 22:49:00,
2013-08-22 17:59:00,97.7,65.4,29.90,SW,231,1.0,0.0,35,0.00,CLR,,0.00,WeatherDisplay:10.37,2013-08-22 22:59:00,
2013-08-22 18:09:00,97.7,65.4,29.90,SW,229,2.0,0.0,35,0.00,CLR,,0.00,WeatherDisplay:10.37,2013-08-22 23:09:00,
2013-08-22 18:19:00,97.6,66.1,29.90,SW,214,1.0,0.0,36,0.00,CLR,,0.00,WeatherDisplay:10.37,2013-08-22 23:19:00,
2013-08-22 18:29:00,97.7,65.4,29.90,South,178,2.0,0.0,35,0.00,CLR,,0.00,WeatherDisplay:10.37,2013-08-22 23:29:00,
2013-08-22 18:39:00,97.3,65.1,29.90,SW,219,2.0,0.0,35,0.00,CLR,,0.00,WeatherDisplay:10.37,2013-08-22 23:39:00,
2013-08-22 18:49:00,97.5,64.4,29.89,SW,229,2.0,0.0,34,0.00,CLR,,0.00,WeatherDisplay:10.37,2013-08-22 23:49:00,
2013-08-22 18:59:00,97.1,64.9,29.89,SSE,165,6.0,0.0,35,0.00,CLR,,0.00,WeatherDisplay:10.37,2013-08-22 23:59:00,
2013-08-22 19:09:00,96.8,65.4,29.89,SSE,165,3.0,0.0,36,0.00,CLR,,0.00,WeatherDisplay:10.37,2013-08-23 00:09:00,
2013-08-22 19:19:00,96.4,64.3,29.89,South,184,3.0,0.0,35,0.00,CLR,,0.00,WeatherDisplay:10.37,2013-08-23 00:19:00,
2013-08-22 19:29:00,96.1,64.8,29.89,South,179,6.0,0.0,36,0.00,CLR,,0.00,WeatherDisplay:10.37,2013-08-23 00:29:00,
2013-08-22 19:39:00,95.5,64.3,29.89,South,181,2.0,0.0,36,0.00,CLR,,0.00,WeatherDisplay:10.37,2013-08-23 00:39:00,
2013-08-22 19:49:00,95.0,64.6,29.89,South,191,2.0,0.0,37,0.00,CLR,,0.00,WeatherDisplay:10.37,2013-08-23 00:49:00,
2013-08-22 19:59:00,94.5,64.2,29.90,SE,137,3.0,0.0,37,0.00,CLR,,0.00,WeatherDisplay:10.37,2013-08-23 00:59:00,
2013-08-22 20:09:00,93.9,63.7,29.90,SSW,202,2.0,0.0,37,0.00,CLR,,0.00,WeatherDisplay:10.37,2013-08-23 01:09:00,
2013-08-22 20:19:00,93.5,64.1,29.90,SSE,155,8.0,0.0,38,0.00,CLR,,0.00,WeatherDisplay:10.37,2013-08-23 01:19:00,
2013-08-22 20:29:00,93.0,64.4,29.91,South,169,6.0,0.0,39,0.00,CLR,,0.00,WeatherDisplay:10.37,2013-08-23 01:29:00,
2013-08-22 20:39:00,92.7,64.8,29.91,South,181,3.0,0.0,40,0.00,CLR,,0.00,WeatherDisplay:10.37,2013-08-23 01:39:00,
2013-08-22 20:49:00,92.1,65.0,29.91,SSE,166,5.0,0.0,41,0.00,CLR,,0.00,WeatherDisplay:10.37,2013-08-23 01:49:00,
2013-08-22 20:59:00,91.9,64.8,29.91,South,183,6.0,0.0,41,0.00,CLR,,0.00,WeatherDisplay:10.37,2013-08-23 01:59:00,
2013-08-22 21:09:00,91.8,64.7,29.92,South,179,6.0,0.0,41,0.00,CLR,,0.00,WeatherDisplay:10.37,2013-08-23 02:09:00,
2013-08-22 21:19:00,91.4,65.1,29.92,SSE,159,2.0,0.0,42,0.00,CLR,,0.00,WeatherDisplay:10.37,2013-08-23 02:19:00,
2013-08-22 21:29:00,91.4,65.1,29.93,SSE,150,9.0,0.0,42,0.00,CLR,,0.00,WeatherDisplay:10.37,2013-08-23 02:29:00,
2013-08-22 21:39:00,91.2,64.9,29.94,South,170,8.0,0.0,42,0.00,CLR,,0.00,WeatherDisplay:10.37,2013-08-23 02:39:00,
2013-08-22 21:49:00,91.0,64.8,29.94,South,170,9.0,0.0,42,0.00,CLR,,0.00,WeatherDisplay:10.37,2013-08-23 02:49:00,
2013-08-22 21:59:00,90.7,64.4,29.94,SE,133,8.0,0.0,42,0.00,CLR,,0.00,WeatherDisplay:10.37,2013-08-23 02:59:00,
2013-08-22 22:09:00,90.3,64.1,29.94,SSE,165,8.0,0.0,42,0.00,CLR,,0.00,WeatherDisplay:10.37,2013-08-23 03:09:00,
2013-08-22 22:19:00,90.1,65.3,29.95,SSE,155,12.0,0.0,44,0.00,CLR,,0.00,WeatherDisplay:10.37,2013-08-23 03:19:00,
2013-08-22 22:29:00,90.0,65.1,29.95,SE,135,5.0,0.0,44,0.00,CLR,,0.00,WeatherDisplay:10.37,2013-08-23 03:29:00,
2013-08-22 22:39:00,89.7,64.9,29.95,SE,143,5.0,0.0,44,0.00,CLR,,0.00,WeatherDisplay:10.37,2013-08-23 03:39:00,
2013-08-22 22:49:00,89.6,64.8,29.95,SE,132,5.0,0.0,44,0.00,CLR,,0.00,WeatherDisplay:10.37,2013-08-23 03:49:00,
2013-08-22 22:59:00,89.4,65.2,29.95,ESE,105,5.0,0.0,45,0.00,CLR,,0.00,WeatherDisplay:10.37,2013-08-23 03:59:00,
2013-08-22 23:09:00,89.2,65.1,29.95,South,172,8.0,0.0,45,0.00,CLR,,0.00,WeatherDisplay:10.37,2013-08-23 04:09:00,
2013-08-22 23:19:00,89.0,64.9,29.95,SE,128,5.0,0.0,45,0.00,CLR,,0.00,WeatherDisplay:10.37,2013-08-23 04:19:00,
2013-08-22 23:29:00,88.9,64.8,29.95,SE,135,6.0,0.0,45,0.00,CLR,,0.00,WeatherDisplay:10.37,2013-08-23 04:29:00,
2013-08-22 23:39:00,88.7,64.6,29.95,South,174,9.0,0.0,45,0.00,CLR,,0.00,WeatherDisplay:10.37,2013-08-23 04:39:00,
2013-08-22 23:49:00,88.5,65.1,29.95,SSE,166,8.0,0.0,46,0.00,CLR,,0.00,WeatherDisplay:10.37,2013-08-23 04:49:00,
2013-08-22 23:59:00,88.3,64.9,29.95,South,189,9.0,0.0,46,0.00,CLR,,0.00,WeatherDisplay:10.37,2013-08-23 04:59:00,